URSSURKK

Guest
Details From URSS - Sochi
To URKK - Pashkovskiy
Flight Number -
Tags Generated
Created
Modified
Stats Distance 102 nm / 188 km
Max Altitude 0 ft / 0 m
Waypoints 2
Social Downloads 2
Likes 0
Share VATSIM

Download

Looking for another format? Having issues loading an existing format? Contact us
Advertisement - Login to hide

Notes

Generated

Route

URSS URKK

ID Type Via Altitude Latitude Longitude Leg Dist Tot Dist Heading (true) Name
O URSS APT - 0 ft / 0 m 43.43576˚ 39.94578˚ - 0 nm - Sochi
O URKK APT - 0 ft / 0 m 45.02906˚ 39.14142˚ 101 nm 101 nm 340° / 340° -

Altitude Profile

Advertisement - Login to hide

URSS

Details ICAO URSS (AER)
Name Sochi
Region Russia
Timezone Europe/Moscow (UTC+3.0)
Stats Elevation 89 ft / 27 m (AMSL)
Location 43.444749° 39.947302°
Runways 2
Magnetic Variation 7.002° E

METAR

URSS 240300Z 04002MPS 9999 FEW010 OVC100 20/19 Q1015 R02/090070 R06/090070 NOSIG RMK R06/06001MPS MT OBSC QFE760

Decode

TAF

TAF URSS 240156Z 2403/2503 05006MPS 9999 SCT010 SCT030CB BKN100 TEMPO 2403/2406 VRB07G12MPS 2100 -TSRA BR BKN006 BKN020CB OVC100 BECMG 2406/2407 27006G11MPS TEMPO 2406/2415 VRB06G11MPS -TSRA BECMG 2415/2416 05006MPS TEMPO 2415/2503 VRB06G11MPS -TSRA

Decode

Departure Runways

ID Width Length Bearing (true) Bearing (mag) Surface Threshold Offset Overrun Length
02 161 ft / 49 m 7,267 ft / 2,215 m 28.98° 21.98° Concrete 0 ft / 0 m 0 ft / 0 m
06 164 ft / 50 m 9,531 ft / 2,905 m 64.90° 57.90° Concrete 262 ft / 80 m 0 ft / 0 m
20 161 ft / 49 m 7,267 ft / 2,215 m 208.99° 201.99° Concrete 0 ft / 0 m 0 ft / 0 m
24 164 ft / 50 m 9,531 ft / 2,905 m 244.92° 237.92° Concrete 0 ft / 0 m 0 ft / 0 m

URKK

Details ICAO URKK (KRR)
Name PASHKOVSKIY
Region Russia
Timezone Europe/Moscow (UTC+3.0)
Stats Elevation 118 ft / 36 m (AMSL)
Location 45.034644° 39.170454°
Runways 2
Magnetic Variation 7.397° E

METAR

URKK 240300Z 21002MPS 9999 SCT007 BKN///CB 20/18 Q1015 R23L/19//65 TEMPO 1000 TSRA BKN005 BKN020CB RMK QFE758

Decode

TAF

TAF URKK 240155Z 2403/2503 08003G08MPS 9999 SCT030CB TEMPO 2403/2415 3100 -TSRA BKN011 BKN020CB

Decode

Destination Runways

ID Width Length Bearing (true) Bearing (mag) Surface Threshold Offset Overrun Length
05L 160 ft / 49 m 7,177 ft / 2,187 m 52.37° 44.97° Asphalt 0 ft / 0 m 160 ft / 49 m
05R 145 ft / 44 m 9,822 ft / 2,994 m 52.45° 45.05° Concrete 0 ft / 0 m 160 ft / 49 m
23L 145 ft / 44 m 9,822 ft / 2,994 m 232.47° 225.07° Concrete 0 ft / 0 m 160 ft / 49 m
23R 160 ft / 49 m 7,177 ft / 2,187 m 232.38° 224.98° Asphalt 0 ft / 0 m 160 ft / 49 m

Popular Alternatives